Time;durP1;ratioP1;P1;durP2;ratioP2;P2;SDS_P1;SDS_P2;PMS_P1;PMS_P2;Temp;Humidity;BMP_temperature;BMP_pressure;BME280_temperature;BME280_humidity;BME280_pressure;Samples;Min_cycle;Max_cycle;Signal;HPM_P1;HPM_P2
2021/12/09 00:00:03;;;;;;;11.43;7.07;;;2.10;99.90;;;;;;4947156;29;20039;-81
2021/12/09 00:04:58;;;;;;;11.07;7.03;;;1.80;99.90;;;;;;4964179;28;20057;-81
2021/12/09 00:07:24;;;;;;;15.50;7.30;;;1.80;99.90;;;;;;4942359;28;20054;-81
2021/12/09 00:09:50;;;;;;;12.75;7.75;;;1.70;99.90;;;;;;4966743;28;20043;-80
2021/12/09 00:12:17;;;;;;;14.18;7.07;;;1.70;99.90;;;;;;4950383;28;20463;-81
2021/12/09 00:14:43;;;;;;;12.40;7.47;;;1.60;99.90;;;;;;4964319;28;20070;-81
2021/12/09 00:17:10;;;;;;;;;;;1.60;99.90;;;;;;4951177;28;20060;-81
2021/12/09 00:19:38;;;;;;;12.98;7.85;;;1.50;99.90;;;;;;4945969;28;19922;-81
2021/12/09 00:22:09;;;;;;;15.05;7.28;;;1.50;99.90;;;;;;4950126;28;20046;-81
2021/12/09 00:24:34;;;;;;;16.80;7.50;;;1.50;99.90;;;;;;4949968;28;20117;-81
2021/12/09 00:29:28;;;;;;;16.30;7.22;;;1.50;99.90;;;;;;4962509;28;19926;-81
2021/12/09 00:31:54;;;;;;;;;;;1.50;99.90;;;;;;4951535;28;20090;-81
2021/12/09 00:34:35;;;;;;;16.17;7.88;;;1.50;99.90;;;;;;4945972;29;19985;-81
2021/12/09 00:37:22;;;;;;;11.45;6.55;;;1.50;99.90;;;;;;4950005;28;20043;-80
2021/12/09 00:39:51;;;;;;;14.02;6.97;;;1.60;99.90;;;;;;4950737;28;20043;-81
2021/12/09 00:42:23;;;;;;;12.52;7.38;;;1.60;99.90;;;;;;4944219;28;20075;-81
2021/12/09 00:45:01;;;;;;;11.90;6.47;;;1.60;99.90;;;;;;4968056;28;20047;-81
2021/12/09 00:53:14;;;;;;;13.45;6.80;;;1.50;99.90;;;;;;5106832;23;20371;-79
2021/12/09 00:55:40;;;;;;;;;;;1.40;99.90;;;;;;4949534;28;20085;-81
2021/12/09 00:58:06;;;;;;;14.68;7.10;;;1.40;99.90;;;;;;4946805;28;19965;-81
2021/12/09 01:00:31;;;;;;;;;;;1.40;99.90;;;;;;4946809;28;20054;-81
2021/12/09 01:02:58;;;;;;;11.40;6.43;;;1.30;99.90;;;;;;4966409;28;19922;-81
2021/12/09 01:05:26;;;;;;;13.90;6.60;;;1.30;99.90;;;;;;4962592;28;20070;-81
2021/12/09 01:07:51;;;;;;;11.95;6.75;;;1.30;99.90;;;;;;4949789;28;20047;-81
2021/12/09 01:10:17;;;;;;;;;;;1.30;99.90;;;;;;4948847;28;20240;-81
2021/12/09 01:12:46;;;;;;;12.63;6.68;;;1.30;99.90;;;;;;4962989;28;19922;-81
2021/12/09 01:15:14;;;;;;;;;;;1.30;99.90;;;;;;4946384;28;20042;-82
2021/12/09 01:17:40;;;;;;;15.13;7.03;;;1.20;99.90;;;;;;4965141;28;19923;-81
2021/12/09 01:20:11;;;;;;;13.25;6.07;;;1.20;99.90;;;;;;4947084;29;20051;-82
2021/12/09 01:22:42;;;;;;;11.48;7.22;;;1.30;99.90;;;;;;4949447;28;20093;-82
2021/12/09 01:25:10;;;;;;;14.10;6.85;;;1.30;99.90;;;;;;4945692;29;20043;-81
2021/12/09 01:27:38;;;;;;;11.68;6.80;;;1.30;99.90;;;;;;4950387;28;20699;-81
2021/12/09 01:30:12;;;;;;;12.57;6.72;;;1.30;99.90;;;;;;4944667;28;20057;-82
2021/12/09 01:32:42;;;;;;;12.13;7.10;;;1.10;99.90;;;;;;4947221;28;20423;-82
2021/12/09 01:35:08;;;;;;;10.57;6.53;;;1.20;99.90;;;;;;4945633;29;20050;-81
2021/12/09 01:37:34;;;;;;;13.88;7.15;;;1.20;99.90;;;;;;4948945;28;20483;-81
2021/12/09 01:40:04;;;;;;;13.48;7.07;;;1.20;99.90;;;;;;4947261;28;20047;-82
2021/12/09 01:42:33;;;;;;;13.63;7.07;;;2.20;99.90;;;;;;4943291;28;20502;-82
2021/12/09 01:45:05;;;;;;;;;;;1.20;99.90;;;;;;4945311;29;20183;-81
2021/12/09 01:47:31;;;;;;;10.35;6.18;;;1.20;99.90;;;;;;4964340;28;19919;-81
2021/12/09 01:49:56;;;;;;;;;;;1.30;99.90;;;;;;4991495;23;20051;-82
2021/12/09 01:52:22;;;;;;;14.57;8.00;;;0.90;99.90;;;;;;4945566;28;19978;-82
2021/12/09 01:54:47;;;;;;;;;;;1.40;99.90;;;;;;4948774;28;20049;-82
2021/12/09 01:57:13;;;;;;;15.40;7.00;;;1.30;99.90;;;;;;4945283;29;20370;-82
2021/12/09 01:59:39;;;;;;;;;;;1.30;99.90;;;;;;4947607;28;20045;-81
2021/12/09 02:02:04;;;;;;;16.02;7.75;;;1.50;99.90;;;;;;4945463;28;20424;-81
2021/12/09 02:08:13;;;;;;;16.92;8.13;;;1.80;99.90;;;;;;4938527;29;19945;-82
2021/12/09 02:10:43;;;;;;;11.95;7.18;;;2.70;99.90;;;;;;4921461;28;20058;-81
2021/12/09 02:13:09;;;;;;;14.45;7.70;;;2.40;99.90;;;;;;4950580;28;20479;-81
2021/12/09 02:15:36;;;;;;;;;;;1.30;99.90;;;;;;4962604;28;20054;-81
2021/12/09 02:18:06;;;;;;;21.55;9.38;;;1.30;99.90;;;;;;4926115;29;20711;-81
2021/12/09 02:20:34;;;;;;;15.40;8.00;;;1.30;99.90;;;;;;4929473;29;20051;-81
2021/12/09 02:23:00;;;;;;;14.00;8.15;;;1.30;99.90;;;;;;4925285;29;20044;-81
2021/12/09 02:25:25;;;;;;;;;;;1.20;99.90;;;;;;4958018;28;20662;-81
2021/12/09 02:27:57;;;;;;;12.90;7.53;;;1.10;99.90;;;;;;4925295;29;20417;-81
2021/12/09 02:30:23;;;;;;;13.32;7.78;;;1.30;99.90;;;;;;4929767;29;20070;-81
2021/12/09 02:32:48;;;;;;;;;;;1.50;99.90;;;;;;4925709;29;20476;-81
2021/12/09 02:35:14;;;;;;;14.88;7.95;;;1.40;99.90;;;;;;4926052;29;19923;-81
2021/12/09 02:37:39;;;;;;;;;;;1.40;99.90;;;;;;4961020;28;20047;-81
2021/12/09 02:40:07;;;;;;;16.20;8.00;;;1.40;99.90;;;;;;4927495;29;20371;-81
2021/12/09 02:42:34;;;;;;;16.58;7.68;;;1.40;99.90;;;;;;4942549;28;20047;-81
2021/12/09 02:45:00;;;;;;;22.75;8.30;;;1.40;99.90;;;;;;4924325;29;20035;-81
2021/12/09 02:47:26;;;;;;;16.05;8.50;;;1.40;99.90;;;;;;4925643;29;20051;-81
2021/12/09 02:49:52;;;;;;;;;;;1.30;99.90;;;;;;4945090;29;20066;-81
2021/12/09 02:52:19;;;;;;;15.43;8.60;;;1.30;99.90;;;;;;4927525;29;19922;-81
2021/12/09 02:54:45;;;;;;;15.35;8.65;;;1.30;99.90;;;;;;4926959;29;20057;-81
2021/12/09 02:57:11;;;;;;;;;;;1.40;99.90;;;;;;4928618;29;20486;-81
2021/12/09 02:59:36;;;;;;;15.25;7.63;;;1.40;99.90;;;;;;4921739;29;19922;-81
2021/12/09 03:02:04;;;;;;;;;;;1.30;99.90;;;;;;4957248;28;20077;-81
2021/12/09 03:04:44;;;;;;;15.20;8.13;;;1.30;99.90;;;;;;4924759;29;19958;-80
2021/12/09 03:07:31;;;;;;;14.30;8.52;;;1.30;99.90;;;;;;4929501;29;20094;-81
2021/12/09 03:10:03;;;;;;;13.70;8.40;;;1.30;99.90;;;;;;4927961;29;20047;-81
2021/12/09 03:12:32;;;;;;;15.07;8.75;;;1.20;99.90;;;;;;5043120;23;20051;-82
2021/12/09 03:14:58;;;;;;;15.20;8.70;;;1.10;99.90;;;;;;4929253;29;20043;-82
2021/12/09 03:17:28;;;;;;;14.43;8.98;;;1.00;99.90;;;;;;4931809;29;20491;-81
2021/12/09 03:19:54;;;;;;;16.65;9.73;;;1.10;99.90;;;;;;4929139;29;20067;-81
2021/12/09 03:22:19;;;;;;;;;;;1.20;99.90;;;;;;4935446;29;20081;-81
2021/12/09 03:24:46;;;;;;;14.00;8.55;;;1.10;99.90;;;;;;4930280;29;19969;-82
2021/12/09 03:27:12;;;;;;;19.17;10.25;;;1.20;99.90;;;;;;4930678;29;20058;-82
2021/12/09 03:29:46;;;;;;;15.35;8.77;;;1.20;99.90;;;;;;5027902;23;20074;-82
2021/12/09 03:32:23;;;;;;;16.23;9.02;;;1.00;99.90;;;;;;4949863;28;20040;-82
2021/12/09 03:35:19;;;;;;;;;;;1.00;99.90;;;;;;4947162;28;20094;-82
2021/12/09 03:37:45;;;;;;;19.85;9.85;;;1.10;99.90;;;;;;4945980;28;19928;-82
2021/12/09 03:40:11;;;;;;;;;;;0.70;99.90;;;;;;4951932;28;20121;-82
2021/12/09 03:42:46;;;;;;;15.27;8.15;;;1.00;99.90;;;;;;4943846;29;19926;-82
2021/12/09 03:45:26;;;;;;;17.38;9.68;;;0.80;99.90;;;;;;4948491;28;20098;-82
2021/12/09 03:47:52;;;;;;;16.65;9.55;;;2.00;99.90;;;;;;4947973;29;20047;-82
2021/12/09 03:50:30;;;;;;;;;;;0.80;99.90;;;;;;4949843;28;20050;-81
2021/12/09 03:53:26;;;;;;;17.48;10.13;;;0.90;99.90;;;;;;4944100;28;19923;-81
2021/12/09 03:56:22;;;;;;;16.27;9.32;;;0.90;99.90;;;;;;4947415;28;20132;-81
2021/12/09 03:58:56;;;;;;;14.73;9.13;;;-0.50;99.90;;;;;;4963546;28;20051;-81
2021/12/09 04:01:36;;;;;;;18.77;10.43;;;0.60;99.90;;;;;;4943254;29;20039;-81
2021/12/09 04:04:02;;;;;;;20.35;10.50;;;0.60;99.90;;;;;;4946267;28;20097;-81
2021/12/09 04:06:29;;;;;;;16.65;9.98;;;0.60;99.90;;;;;;4949448;28;20445;-81
2021/12/09 04:08:56;;;;;;;17.90;9.65;;;0.60;99.90;;;;;;4947612;28;20048;-82
2021/12/09 04:11:22;;;;;;;19.05;10.40;;;0.60;99.90;;;;;;4950173;28;20050;-81
2021/12/09 04:13:48;;;;;;;16.15;8.52;;;1.00;99.90;;;;;;4943812;29;20039;-82
2021/12/09 04:16:13;;;;;;;;;;;0.80;99.90;;;;;;4949775;28;20057;-81
2021/12/09 04:18:42;;;;;;;16.27;9.38;;;0.80;99.90;;;;;;4947217;28;20005;-81
2021/12/09 04:24:37;;;;;;;18.20;9.77;;;0.30;99.90;;;;;;5059012;23;20063;-82
2021/12/09 04:27:55;;;;;;;19.05;10.50;;;-0.60;99.90;;;;;;4927340;29;20095;-81
2021/12/09 04:34:05;;;;;;;19.40;10.30;;;0.50;99.90;;;;;;4928728;29;20090;-81
2021/12/09 04:40:35;;;;;;;18.85;9.95;;;-0.90;99.90;;;;;;4901276;29;20116;-82
2021/12/09 04:46:25;;;;;;;21.45;10.18;;;-0.10;99.90;;;;;;4886454;29;20052;-81
2021/12/09 04:48:50;;;;;;;;;;;0.80;99.90;;;;;;4891997;29;20567;-81
2021/12/09 04:51:21;;;;;;;15.90;8.93;;;0.80;99.90;;;;;;5033603;23;19933;-82
2021/12/09 04:53:49;;;;;;;25.40;10.88;;;0.70;99.90;;;;;;4938407;28;20153;-82
2021/12/09 04:56:39;;;;;;;23.48;9.45;;;0.70;99.90;;;;;;4942586;29;20052;-82
2021/12/09 04:59:51;;;;;;;21.48;9.88;;;0.10;99.90;;;;;;4945837;28;20065;-81
2021/12/09 05:05:56;;;;;;;17.38;9.63;;;-0.40;99.90;;;;;;4843814;29;20066;-82
2021/12/09 05:09:11;;;;;;;22.67;10.07;;;0.60;99.90;;;;;;4838266;29;20174;-82
2021/12/09 05:12:05;;;;;;;18.80;8.95;;;-0.40;99.90;;;;;;4851718;29;20506;-81
2021/12/09 05:14:50;;;;;;;18.48;10.10;;;0.80;99.90;;;;;;4852786;29;20165;-81
2021/12/09 05:17:17;;;;;;;19.25;9.52;;;3.80;99.90;;;;;;4920549;28;20082;-81
2021/12/09 05:19:43;;;;;;;21.70;10.20;;;0.70;99.90;;;;;;4946251;28;20050;-81
2021/12/09 05:22:22;;;;;;;17.10;8.75;;;0.80;99.90;;;;;;4949241;29;20530;-81
2021/12/09 05:24:52;;;;;;;17.42;10.57;;;0.70;99.90;;;;;;4944154;28;20043;-81
2021/12/09 05:27:18;;;;;;;17.55;9.73;;;-0.50;99.90;;;;;;4948381;28;20061;-81
2021/12/09 05:29:46;;;;;;;16.02;9.52;;;0.70;99.90;;;;;;4962866;28;20063;-81
2021/12/09 05:32:13;;;;;;;18.83;10.85;;;0.80;99.90;;;;;;4965711;28;20126;-81
2021/12/09 05:34:48;;;;;;;18.77;11.35;;;0.70;99.90;;;;;;4945841;29;20058;-81
2021/12/09 05:37:16;;;;;;;17.80;10.00;;;0.70;99.90;;;;;;4963768;28;20125;-80
2021/12/09 05:39:43;;;;;;;19.20;9.90;;;0.70;99.90;;;;;;4944933;28;20047;-80
2021/12/09 05:42:10;;;;;;;17.20;9.70;;;0.70;99.90;;;;;;4946682;28;20051;-79
2021/12/09 05:44:37;;;;;;;15.90;9.68;;;0.70;99.90;;;;;;4964701;28;20039;-80
2021/12/09 05:47:05;;;;;;;18.65;9.00;;;0.70;99.90;;;;;;4949403;28;20050;-80
2021/12/09 05:49:32;;;;;;;15.52;9.18;;;0.70;99.90;;;;;;4962880;28;20043;-79
2021/12/09 05:51:58;;;;;;;21.40;10.35;;;0.70;99.90;;;;;;4947103;28;20070;-80
2021/12/09 05:54:23;;;;;;;;;;;0.80;99.90;;;;;;4944291;28;20050;-84
2021/12/09 05:56:55;;;;;;;19.00;9.65;;;0.80;99.90;;;;;;4943955;28;19922;-85
2021/12/09 05:59:27;;;;;;;15.57;8.45;;;0.80;99.90;;;;;;4945110;28;20136;-81
2021/12/09 06:01:52;;;;;;;;;;;0.80;99.90;;;;;;4945815;28;20095;-80
2021/12/09 06:04:18;;;;;;;14.82;9.23;;;0.80;99.90;;;;;;4940994;28;20342;-81
2021/12/09 06:06:47;;;;;;;17.67;9.90;;;0.80;99.90;;;;;;4963534;28;20047;-81
2021/12/09 06:09:13;;;;;;;24.70;11.85;;;0.80;99.90;;;;;;4945855;28;20055;-80
2021/12/09 06:11:46;;;;;;;18.38;10.10;;;0.80;99.90;;;;;;4943828;28;20054;-80
2021/12/09 06:14:12;;;;;;;19.63;9.43;;;0.70;99.90;;;;;;5148338;23;20519;-76
2021/12/09 06:19:28;;;;;;;20.98;10.10;;;0.90;99.90;;;;;;5084759;23;20042;-80
2021/12/09 06:22:27;;;;;;;18.98;9.48;;;0.70;99.90;;;;;;4956348;28;20057;-80
2021/12/09 06:25:31;;;;;;;17.97;9.00;;;1.20;99.90;;;;;;4955382;28;20038;-75
2021/12/09 06:28:09;;;;;;;19.88;10.23;;;1.90;99.90;;;;;;4953940;28;20352;-82
2021/12/09 06:34:12;;;;;;;16.98;9.57;;;-0.10;99.90;;;;;;4874987;29;20048;-78
2021/12/09 06:36:50;;;;;;;17.33;8.70;;;0.60;99.90;;;;;;4877381;29;20048;-77
2021/12/09 06:42:52;;;;;;;16.08;8.60;;;0.20;99.90;;;;;;4897098;29;20047;-77
2021/12/09 06:45:36;;;;;;;16.38;8.98;;;0.60;99.90;;;;;;4899039;28;20045;-75
2021/12/09 06:48:03;;;;;;;17.20;9.48;;;2.80;99.90;;;;;;4947337;28;20049;-78
2021/12/09 06:50:31;;;;;;;15.85;9.02;;;1.60;99.90;;;;;;4973609;28;20161;-79
2021/12/09 06:52:57;;;;;;;19.35;9.07;;;0.70;99.90;;;;;;4957134;28;20034;-82
2021/12/09 06:55:22;;;;;;;;;;;0.70;99.90;;;;;;4951822;28;20121;-92
2021/12/09 06:57:49;;;;;;;18.52;9.63;;;0.70;99.90;;;;;;4955533;28;19928;-85
2021/12/09 07:00:22;;;;;;;17.92;9.60;;;0.70;99.90;;;;;;4954495;28;20039;-81
2021/12/09 07:02:48;;;;;;;14.88;9.27;;;0.80;99.90;;;;;;4954723;28;20115;-80
2021/12/09 07:05:14;;;;;;;;;;;0.80;99.90;;;;;;4954777;28;20130;-78
2021/12/09 07:07:39;;;;;;;;;;;0.80;99.90;;;;;;4956292;28;20290;-86
2021/12/09 07:10:07;;;;;;;;;;;0.80;99.90;;;;;;4956571;28;19922;-82
2021/12/09 07:12:36;;;;;;;;;;;0.70;99.90;;;;;;4950454;28;20366;-81
2021/12/09 07:15:03;;;;;;;;;;;0.70;99.90;;;;;;4955842;28;19966;-82
2021/12/09 07:17:28;;;;;;;;;;;0.70;99.90;;;;;;4955655;28;19965;-82
2021/12/09 07:19:54;;;;;;;;;;;0.70;99.90;;;;;;4944577;28;20397;-79
2021/12/09 07:22:19;;;;;;;;;;;0.60;99.90;;;;;;4956141;28;20289;-86
2021/12/09 07:24:45;;;;;;;;;;;0.60;99.90;;;;;;4956161;28;19928;-80
2021/12/09 07:27:10;;;;;;;;;;;0.60;99.90;;;;;;4957918;28;19952;-83
2021/12/09 07:29:36;;;;;;;;;;;0.70;99.90;;;;;;4956995;28;19925;-82
2021/12/09 07:32:02;;;;;;;;;;;0.60;99.90;;;;;;4950240;28;19925;-81
2021/12/09 07:34:27;;;;;;;;;;;0.70;99.90;;;;;;4971121;28;19922;-80
2021/12/09 07:36:53;;;;;;;;;;;0.70;99.90;;;;;;4971160;28;19933;-78
2021/12/09 07:39:18;;;;;;;;;;;0.70;99.90;;;;;;4955609;28;19937;-88
2021/12/09 07:41:44;;;;;;;;;;;0.70;99.90;;;;;;4972666;28;20008;-83
2021/12/09 07:44:10;;;;;;;;;;;0.80;99.90;;;;;;4970450;28;19918;-83
2021/12/09 07:46:36;;;;;;;;;;;0.70;99.90;;;;;;4964636;28;19922;-79
2021/12/09 07:49:02;;;;;;;;;;;0.70;99.90;;;;;;4967371;28;20293;-80
2021/12/09 07:51:28;;;;;;;;;;;0.80;99.90;;;;;;4954468;28;19930;-79
2021/12/09 07:53:59;;;;;;;;;;;0.90;99.90;;;;;;4955873;28;19926;-80
2021/12/09 07:56:24;;;;;;;;;;;0.80;99.90;;;;;;4971484;28;19922;-80
2021/12/09 07:58:50;;;;;;;;;;;1.00;99.90;;;;;;4974859;28;19929;-79
2021/12/09 08:01:15;;;;;;;;;;;0.90;99.90;;;;;;4958773;28;20378;-80
2021/12/09 08:03:41;;;;;;;;;;;0.90;99.90;;;;;;4973528;28;19918;-80
2021/12/09 08:06:06;;;;;;;;;;;0.90;99.90;;;;;;4958529;28;19922;-80
2021/12/09 08:08:32;;;;;;;;;;;3.00;99.90;;;;;;4976356;28;19922;-80
2021/12/09 08:10:58;;;;;;;;;;;1.10;99.90;;;;;;4958404;28;20373;-80
2021/12/09 08:13:23;;;;;;;;;;;1.20;99.90;;;;;;4976481;28;19926;-80
2021/12/09 08:15:50;;;;;;;;;;;3.20;99.90;;;;;;4976435;28;20304;-80
2021/12/09 08:23:54;;;;;;;;;;;1.50;99.90;;;;;;5069459;23;19940;-80
2021/12/09 08:30:04;;;;;;;;;;;1.50;99.90;;;;;;4964478;28;20009;-80
2021/12/09 08:42:25;;;;;;;;;;;2.60;99.90;;;;;;4986536;28;20001;-80
2021/12/09 08:51:37;;;;;;;;;;;5.30;99.90;;;;;;4947122;28;20385;-80
2021/12/09 09:05:08;;;;;;;;;;;3.90;99.90;;;;;;4962627;28;20038;-79
2021/12/09 09:08:05;;;;;;;;;;;2.80;99.90;;;;;;4963344;28;19974;-80
2021/12/09 09:14:17;;;;;;;;;;;5.50;99.90;;;;;;4944074;28;20069;-79
2021/12/09 09:58:07;;;;;;;;;;;4.80;99.90;;;;;;4962262;28;20403;-79
2021/12/09 10:03:47;;;;;;;;;;;5.50;99.90;;;;;;4947389;28;19922;-80
2021/12/09 10:06:44;;;;;;;;;;;3.70;99.90;;;;;;4947866;28;19918;-81
2021/12/09 10:09:34;;;;;;;;;;;4.80;99.90;;;;;;4905811;29;19978;-81
2021/12/09 11:05:03;;;;;;;;;;;4.10;99.90;;;;;;4960538;28;20258;-79
2021/12/09 11:07:31;;;;;;;;;;;4.80;99.90;;;;;;4944477;28;19936;-80
2021/12/09 11:10:31;;;;;;;;;;;4.00;99.90;;;;;;4930251;28;19922;-79
2021/12/09 11:12:58;;;;;;;;;;;2.60;99.90;;;;;;4943087;28;20010;-78
2021/12/09 11:19:07;;;;;;;;;;;4.50;99.90;;;;;;5326028;23;19929;-80
2021/12/09 11:22:12;;;;;;;;;;;5.40;99.90;;;;;;4922806;28;19937;-76
2021/12/09 11:24:58;;;;;;;;;;;3.00;99.90;;;;;;4948478;28;19926;-80
2021/12/09 11:28:11;;;;;;;;;;;4.40;99.90;;;;;;4905302;29;20005;-81
2021/12/09 11:30:59;;;;;;;;;;;3.10;99.90;;;;;;4904525;29;19930;-78
2021/12/09 11:37:03;;;;;;;;;;;5.50;99.90;;;;;;4871732;29;19923;-78
2021/12/09 11:39:47;;;;;;;;;;;4.00;99.90;;;;;;4869343;29;19928;-77
2021/12/09 11:42:20;;;;;;;;;;;3.40;99.90;;;;;;4912037;29;19923;-77
2021/12/09 11:44:58;;;;;;;;;;;2.00;99.90;;;;;;4922907;29;19923;-77
2021/12/09 11:47:23;;;;;;;;;;;6.00;99.90;;;;;;4910279;29;19959;-78
2021/12/09 11:49:55;;;;;;;;;;;5.00;99.90;;;;;;4912822;29;19927;-78
2021/12/09 11:52:24;;;;;;;;;;;4.50;99.90;;;;;;4908834;29;19974;-79
2021/12/09 11:55:03;;;;;;;;;;;4.40;99.90;;;;;;4909761;29;19926;-79
2021/12/09 12:11:35;;;;;;;;;;;4.40;99.90;;;;;;4950801;28;19970;-78
2021/12/09 12:57:17;;;;;;;;;;;4.40;99.90;;;;;;6018008;23;20180;-78
2021/12/09 13:06:17;;;;;;;;;;;4.10;99.90;;;;;;4945595;28;19922;-78
2021/12/09 13:15:26;;;;;;;;;;;4.60;99.90;;;;;;4898542;29;19953;-78
2021/12/09 13:23:28;;;;;;;;;;;4.60;99.90;;;;;;5139754;23;19929;-79
2021/12/09 14:32:08;;;;;;;;;;;4.90;99.90;;;;;;5433914;23;19933;-76
2021/12/09 14:34:42;;;;;;;;;;;4.80;99.90;;;;;;4944249;29;20376;-76
2021/12/09 14:37:09;;;;;;;;;;;4.80;99.90;;;;;;4962368;28;20413;-76
2021/12/09 14:39:38;;;;;;;;;;;4.80;99.90;;;;;;4940816;29;19922;-77
2021/12/09 14:42:05;;;;;;;;;;;4.90;99.90;;;;;;4948166;28;19926;-78
2021/12/09 14:44:32;;;;;;;;;;;5.00;99.90;;;;;;4961302;28;20420;-78
2021/12/09 14:47:41;;;;;;;;;;;6.70;99.90;;;;;;4964562;28;19922;-77
2021/12/09 14:53:32;;;;;;;;;;;4.80;99.90;;;;;;4932064;29;20084;-80
2021/12/09 14:56:00;;;;;;;;;;;4.00;99.90;;;;;;4924541;29;19931;-82
2021/12/09 15:01:37;;;;;;;;;;;4.90;99.90;;;;;;4918507;29;19929;-78
2021/12/09 15:07:32;;;;;;;;;;;4.90;99.90;;;;;;4936510;29;20286;-79
2021/12/09 15:13:13;;;;;;;;;;;5.00;99.90;;;;;;4926077;29;19930;-77
2021/12/09 15:16:08;;;;;;;;;;;5.00;99.90;;;;;;4932240;29;19966;-80
2021/12/09 15:18:40;;;;;;;;;;;3.20;99.90;;;;;;4946137;28;19926;-79
2021/12/09 15:21:19;;;;;;;;;;;5.30;99.90;;;;;;4967903;28;20370;-80
2021/12/09 15:23:52;;;;;;;;;;;4.90;99.90;;;;;;4945310;28;19923;-79
2021/12/09 15:26:49;;;;;;;;;;;4.90;99.90;;;;;;4969315;28;19929;-79
2021/12/09 15:29:22;;;;;;;;;;;4.90;99.90;;;;;;4947764;28;19923;-78
2021/12/09 15:35:16;;;;;;;;;;;4.70;99.90;;;;;;4968421;28;20366;-75
2021/12/09 15:38:08;;;;;;;;;;;4.80;99.90;;;;;;4947948;28;19926;-80
2021/12/09 15:41:07;;;;;;;;;;;4.80;99.90;;;;;;4958389;28;19921;-76
2021/12/09 15:44:03;;;;;;;;;;;4.50;99.90;;;;;;4960075;28;19937;-78
2021/12/09 15:47:27;;;;;;;;;;;4.80;99.90;;;;;;4903514;29;19927;-85
2021/12/09 16:10:54;;;;;;;;;;;5.00;99.90;;;;;;4832237;29;19927;-82
2021/12/09 16:19:06;;;;;;;;;;;3.50;99.90;;;;;;5026005;23;20400;-77
2021/12/09 16:24:56;;;;;;;;;;;4.50;99.90;;;;;;4979815;23;19989;-80
2021/12/09 16:31:07;;;;;;;;;;;4.60;99.90;;;;;;5193407;23;19925;-83
2021/12/09 16:37:38;;;;;;;;;;;3.80;99.90;;;;;;4986246;28;19917;-78
2021/12/09 16:40:39;;;;;;;;;;;4.50;99.90;;;;;;4948970;28;20384;-77
2021/12/09 16:52:58;;;;;;;;;;;4.60;99.90;;;;;;4967450;23;19922;-76
2021/12/09 17:05:20;;;;;;;;;;;3.40;99.90;;;;;;5148160;23;19933;-78
2021/12/09 17:07:47;;;;;;;;;;;3.70;99.90;;;;;;4958490;28;19922;-75
2021/12/09 17:10:19;;;;;;;;;;;4.80;99.90;;;;;;4968522;28;19929;-76
2021/12/09 17:17:00;;;;;;;;;;;3.30;99.90;;;;;;4936784;29;19922;-80
2021/12/09 17:19:34;;;;;;;;;;;3.50;99.90;;;;;;4935043;29;19987;-81
2021/12/09 17:22:22;;;;;;;;;;;3.90;99.90;;;;;;4916770;29;19922;-87
2021/12/09 17:24:47;;;;;;;;;;;6.20;99.90;;;;;;4920812;29;19985;-74
2021/12/09 17:27:23;;;;;;;;;;;4.70;99.90;;;;;;4934367;29;20323;-72
2021/12/09 17:29:48;;;;;;;;;;;4.70;99.90;;;;;;4935864;29;19923;-72
2021/12/09 17:32:14;;;;;;;;;;;4.70;99.90;;;;;;4936286;29;19958;-73
2021/12/09 17:35:01;;;;;;;;;;;4.70;99.90;;;;;;4937912;28;20343;-78
2021/12/09 17:37:35;;;;;;;;;;;6.20;99.90;;;;;;4958370;28;19930;-81
2021/12/09 17:40:38;;;;;;;;;;;4.60;99.90;;;;;;4964248;28;19918;-77
2021/12/09 17:43:05;;;;;;;;;;;4.60;99.90;;;;;;4959581;28;20013;-82
2021/12/09 17:45:35;;;;;;;;;;;4.50;99.90;;;;;;4961847;28;20005;-79
2021/12/09 17:48:04;;;;;;;;;;;4.70;99.90;;;;;;4968494;28;19925;-88
2021/12/09 17:50:30;;;;;;;;;;;4.80;99.90;;;;;;4964716;28;19944;-75
2021/12/09 17:53:03;;;;;;;;;;;4.90;99.90;;;;;;4982239;28;20034;-75
2021/12/09 17:55:30;;;;;;;;;;;4.90;99.90;;;;;;4966008;28;19947;-78
2021/12/09 18:00:43;;;;;;;;;;;5.60;99.90;;;;;;4947883;29;19929;-77
2021/12/09 18:03:09;;;;;;;;;;;5.00;99.90;;;;;;4923434;29;19923;-79
2021/12/09 18:05:35;;;;;;;;;;;5.00;99.90;;;;;;4942484;29;19973;-80
2021/12/09 18:08:02;;;;;;;;;;;5.00;99.90;;;;;;4941409;29;19927;-88
2021/12/09 18:10:33;;;;;;;;;;;5.00;99.90;;;;;;4946945;29;20251;-76
2021/12/09 18:23:38;;;;;;;;;;;;;;;;;;;;;
2021/12/09 18:29:56;;;;;;;;;;;4.00;99.90;;;;;;4936999;29;19941;-73
2021/12/09 18:32:31;;;;;;;;;;;;;;;;;;;;;
2021/12/09 18:35:27;;;;;;;;;;;4.90;99.90;;;;;;4936812;28;19917;-78
2021/12/09 18:37:58;;;;;;;;;;;6.20;99.90;;;;;;4943369;29;19929;-75
2021/12/09 18:40:28;;;;;;;;;;;4.90;99.90;;;;;;4926197;29;19922;-77
2021/12/09 18:42:54;;;;;;;;;;;4.90;99.90;;;;;;4927689;29;19922;-75
2021/12/09 18:45:23;;;;;;;;;;;4.90;99.90;;;;;;4925989;29;20001;-74
2021/12/09 18:47:49;;;;;;;;;;;5.10;99.90;;;;;;4943951;28;19927;-80
2021/12/09 18:50:17;;;;;;;;;;;5.80;99.90;;;;;;4925927;29;19923;-79
2021/12/09 18:52:42;;;;;;;;;;;4.80;99.90;;;;;;4947727;29;19955;-73
2021/12/09 18:55:10;;;;;;;;;;;4.70;99.90;;;;;;4938762;29;20021;-72
2021/12/09 18:57:36;;;;;;;;;;;4.80;99.90;;;;;;4934991;29;20017;-73
2021/12/09 19:00:04;;;;;;;;;;;4.90;99.90;;;;;;4928380;29;19929;-72
2021/12/09 19:02:29;;;;;;;;;;;4.90;99.90;;;;;;4916976;29;20434;-73
2021/12/09 19:04:56;;;;;;;;;;;5.00;99.90;;;;;;4919576;29;20025;-77
2021/12/09 19:07:22;;;;;;;;;;;5.00;99.90;;;;;;4938089;28;19954;-80
2021/12/09 19:09:48;;;;;;;;;;;5.80;99.90;;;;;;4935161;28;19981;-75
2021/12/09 19:12:13;;;;;;;;;;;5.10;99.90;;;;;;4937483;29;19930;-75
2021/12/09 19:14:39;;;;;;;;;;;5.00;99.90;;;;;;4920514;29;19922;-75
2021/12/09 19:17:07;;;;;;;;;;;4.90;99.90;;;;;;4940256;29;19969;-77
2021/12/09 19:19:33;;;;;;;;;;;5.10;99.90;;;;;;4933649;29;20004;-72
2021/12/09 19:21:59;;;;;;;;;;;5.00;99.90;;;;;;4917951;29;19931;-73
2021/12/09 19:24:27;;;;;;;;;;;5.20;99.90;;;;;;4939686;29;19966;-75
2021/12/09 19:26:57;;;;;;;;;;;5.10;99.90;;;;;;4924000;29;19966;-74
2021/12/09 19:29:23;;;;;;;;;;;5.20;99.90;;;;;;4945056;29;20404;-74
2021/12/09 19:31:49;;;;;;;;;;;5.10;99.90;;;;;;4927234;29;20362;-73
2021/12/09 19:34:15;;;;;;;;;;;5.20;99.90;;;;;;4924088;29;19942;-75
2021/12/09 19:36:43;;;;;;;;;;;5.10;99.90;;;;;;4925506;29;19930;-73
2021/12/09 19:39:09;;;;;;;;;;;5.10;99.90;;;;;;4921472;29;19961;-74
2021/12/09 19:41:35;;;;;;;;;;;4.90;99.90;;;;;;4923884;29;19923;-73
2021/12/09 19:44:01;;;;;;;;;;;4.90;99.90;;;;;;4940152;29;19990;-75
2021/12/09 19:46:26;;;;;;;;;;;4.90;99.90;;;;;;4924496;29;19929;-72
2021/12/09 19:48:53;;;;;;;;;;;4.90;99.90;;;;;;4922786;29;20366;-71
2021/12/09 19:51:23;;;;;;;;;;;5.00;99.90;;;;;;4924288;29;19930;-71
2021/12/09 19:53:49;;;;;;;;;;;4.90;99.90;;;;;;4927996;29;19922;-75
2021/12/09 19:56:15;;;;;;;;;;;5.00;99.90;;;;;;4928692;29;19922;-71
2021/12/09 19:58:42;;;;;;;;;;;4.90;99.90;;;;;;4930445;29;20314;-69
2021/12/09 20:01:08;;;;;;;;;;;5.00;99.90;;;;;;4928172;29;19966;-71
2021/12/09 20:03:35;;;;;;;;;;;5.20;99.90;;;;;;4946740;29;19974;-73
2021/12/09 20:06:04;;;;;;;;;;;5.20;99.90;;;;;;4927511;29;19926;-72
2021/12/09 20:08:33;;;;;;;;;;;5.20;99.90;;;;;;4946686;28;19922;-72
2021/12/09 20:11:00;;;;;;;;;;;5.30;99.90;;;;;;4925938;29;19923;-72
2021/12/09 20:13:25;;;;;;;;;;;5.20;99.90;;;;;;4929991;29;19923;-73
2021/12/09 20:15:51;;;;;;;;;;;4.10;99.90;;;;;;4916083;29;19930;-72
2021/12/09 20:18:17;;;;;;;;;;;5.10;99.90;;;;;;4918279;29;20081;-72
2021/12/09 20:20:42;;;;;;;;;;;5.10;99.90;;;;;;4939967;29;20386;-74
2021/12/09 20:23:13;;;;;;;;;;;5.00;99.90;;;;;;4946400;28;19922;-71
2021/12/09 20:35:35;;;;;;;;;;;2.40;99.90;;;;;;4945462;28;19922;-76
2021/12/09 21:00:07;;;;;;;;;;;3.70;99.90;;;;;;4964993;28;20328;-80
2021/12/09 21:05:47;;;;;;;;;;;6.60;99.90;;;;;;4946007;28;20012;-76
2021/12/09 21:16:41;;;;;;;;;;;5.30;99.90;;;;;;4981952;28;19930;-77
2021/12/09 21:19:12;;;;;;;;;;;5.40;99.90;;;;;;4958788;28;19929;-76
2021/12/09 21:21:38;;;;;;;;;;;5.20;99.90;;;;;;4963955;28;19922;-77
2021/12/09 21:24:03;;;;;;;;;;;5.30;99.90;;;;;;4964862;28;20370;-75
2021/12/09 21:26:29;;;;;;;;;;;5.20;99.90;;;;;;4964597;28;19925;-78
2021/12/09 21:28:58;;;;;;;;;;;5.10;99.90;;;;;;4966082;28;20289;-78
2021/12/09 21:31:30;;;;;;;;;;;5.10;99.90;;;;;;4965292;28;19922;-76
2021/12/09 21:34:07;;;;;;;;;;;5.10;99.90;;;;;;4967516;28;20306;-76
2021/12/09 21:40:11;;;;;;;;;;;5.10;99.90;;;;;;4981170;28;19936;-73
2021/12/09 21:49:55;;;;;;;;;;;5.60;99.90;;;;;;4937851;29;19961;-75
2021/12/09 21:52:26;;;;;;;;;;;5.00;99.90;;;;;;4923678;29;19922;-76
2021/12/09 21:54:52;;;;;;;;;;;5.10;99.90;;;;;;4930112;29;19933;-75
2021/12/09 22:49:39;;;;;;;;;;;3.30;99.90;;;;;;5051418;23;19933;-75
2021/12/09 22:52:55;;;;;;;;;;;2.90;99.90;;;;;;5095021;23;20425;-76
2021/12/09 22:55:48;;;;;;;;;;;5.20;99.90;;;;;;4945316;28;20065;-77
2021/12/09 22:58:43;;;;;;;;;;;5.00;99.90;;;;;;4941537;28;19922;-76
2021/12/09 23:01:36;;;;;;;;;;;;;;;;;;;;;
2021/12/09 23:04:23;;;;;;;;;;;3.20;99.90;;;;;;4960546;28;19918;-75